createdAt,value
2023-05-10T00:01:00.907Z,88.4331
2023-05-10T00:02:04.160Z,88.1901
2023-05-10T00:03:07.643Z,88.7478
2023-05-10T00:04:10.870Z,89.0559
2023-05-10T00:05:14.129Z,89.2771
2023-05-10T00:06:15.490Z,89.5686
2023-05-10T00:07:18.723Z,89.4876
2023-05-10T00:08:22.157Z,89.5129
2023-05-10T00:09:25.376Z,89.8848
2023-05-10T00:10:28.616Z,89.3751
2023-05-10T00:11:32.021Z,89.9947
2023-05-10T00:12:35.228Z,89.5592
2023-05-10T00:13:38.892Z,90.0493
2023-05-10T00:14:42.086Z,90.2069
2023-05-10T00:15:45.311Z,90.3234
2023-05-10T00:16:48.690Z,90.7142
2023-05-10T00:17:51.938Z,90.2887
2023-05-10T00:18:55.383Z,90.0069
2023-05-10T00:19:58.609Z,90.4802
2023-05-10T00:21:02.058Z,90.6258
2023-05-10T00:22:05.292Z,90.5530
2023-05-10T00:23:08.538Z,90.8137
2023-05-10T00:24:11.972Z,90.4901
2023-05-10T00:25:15.203Z,90.6223
2023-05-10T00:26:18.622Z,90.8607
2023-05-10T00:27:21.851Z,90.7793
2023-05-10T00:28:25.078Z,90.9050
2023-05-10T00:29:28.316Z,89.8220
2023-05-10T00:30:31.543Z,90.1817
2023-05-10T00:31:35.117Z,90.3652
2023-05-10T00:32:38.354Z,90.9689
2023-05-10T00:33:41.593Z,91.3354
2023-05-10T00:34:44.829Z,91.4586
2023-05-10T00:35:48.035Z,90.9659
2023-05-10T00:36:51.309Z,91.0479
2023-05-10T00:37:54.494Z,91.5018
2023-05-10T00:38:55.774Z,91.5824
2023-05-10T00:39:59.052Z,91.5997
2023-05-10T00:41:02.646Z,91.4979
2023-05-10T00:42:05.901Z,91.7716
2023-05-10T00:43:09.117Z,90.5828
2023-05-10T00:44:09.630Z,90.7288
2023-05-10T00:45:12.956Z,91.4578
2023-05-10T00:46:16.604Z,92.0467
2023-05-10T00:47:19.897Z,92.3471
2023-05-10T00:48:23.141Z,92.2084
2023-05-10T00:49:26.397Z,92.5935
2023-05-10T00:50:29.617Z,92.9208
2023-05-10T00:51:32.882Z,92.9704
2023-05-10T00:52:36.124Z,92.9857
2023-05-10T00:53:39.378Z,93.0322
2023-05-10T00:54:42.611Z,93.0628
2023-05-10T00:55:45.835Z,92.7735
2023-05-10T00:56:49.071Z,92.5912
2023-05-10T00:57:52.294Z,92.6050
2023-05-10T00:58:55.743Z,92.2762
2023-05-10T00:59:58.947Z,92.5787
2023-05-10T01:01:02.207Z,92.6909
2023-05-10T01:02:05.791Z,92.3314
2023-05-10T01:03:09.151Z,92.5515
2023-05-10T01:04:12.480Z,92.3834
2023-05-10T01:05:15.749Z,92.1549
2023-05-10T01:06:19.236Z,92.4557
2023-05-10T01:07:22.488Z,92.6261
2023-05-10T01:08:25.709Z,92.7813
2023-05-10T01:09:28.949Z,92.7013
2023-05-10T01:10:32.168Z,92.9612
2023-05-10T01:11:35.687Z,92.9100
2023-05-10T01:12:39.115Z,93.0650
2023-05-10T01:13:42.338Z,93.0998
2023-05-10T01:14:45.562Z,92.9105
2023-05-10T01:15:48.791Z,92.6599
2023-05-10T01:16:51.984Z,92.7385
2023-05-10T01:17:55.220Z,92.7504
2023-05-10T01:18:58.687Z,92.5072
2023-05-10T01:20:01.923Z,92.7918
2023-05-10T01:21:05.110Z,92.4727
2023-05-10T01:22:08.610Z,92.2521
2023-05-10T01:23:11.844Z,92.1951
2023-05-10T01:24:15.034Z,92.0745
2023-05-10T01:25:18.262Z,92.0223
2023-05-10T01:26:21.462Z,91.9211
2023-05-10T01:27:24.688Z,91.9007
2023-05-10T01:28:27.926Z,91.9412
2023-05-10T01:29:31.408Z,91.9126
2023-05-10T01:30:34.616Z,91.9118
2023-05-10T01:31:37.874Z,91.7847
2023-05-10T01:32:41.069Z,91.7509
2023-05-10T01:33:44.320Z,91.9391
2023-05-10T01:34:47.768Z,92.2900
2023-05-10T01:35:51.336Z,92.3153
2023-05-10T01:36:54.549Z,92.5576
2023-05-10T01:37:57.811Z,92.1911
2023-05-10T01:39:01.301Z,92.1729
2023-05-10T01:40:04.566Z,92.1899
2023-05-10T01:41:07.770Z,92.2980
2023-05-10T01:42:10.980Z,92.2780
2023-05-10T01:43:14.226Z,92.3506
2023-05-10T01:44:17.674Z,91.9492
2023-05-10T01:45:20.876Z,92.4134
2023-05-10T01:46:24.139Z,92.6609
2023-05-10T01:47:27.367Z,92.5025
2023-05-10T01:48:30.588Z,91.9712
2023-05-10T01:49:34.053Z,91.8372
2023-05-10T01:50:37.256Z,91.3908
2023-05-10T01:51:41.470Z,91.4735
2023-05-10T01:52:41.005Z,91.7466
2023-05-10T01:53:44.231Z,91.9382
2023-05-10T01:54:47.481Z,91.7347
2023-05-10T01:55:50.697Z,91.6789
2023-05-10T01:56:54.140Z,91.6943
2023-05-10T01:57:57.359Z,91.9409
2023-05-10T01:59:00.548Z,92.1823
2023-05-10T02:00:03.772Z,92.1948
2023-05-10T02:01:07.093Z,91.5710
2023-05-10T02:02:10.308Z,91.7052
2023-05-10T02:03:13.564Z,92.2272
2023-05-10T02:04:16.752Z,92.5939
2023-05-10T02:05:30.849Z,93.0457
2023-05-10T02:06:34.039Z,93.2368
2023-05-10T02:07:37.518Z,93.7118
2023-05-10T02:08:40.744Z,93.9275
2023-05-10T02:09:44.314Z,94.1386
2023-05-10T02:10:47.726Z,94.5891
2023-05-10T02:11:50.932Z,94.5515
2023-05-10T02:12:54.201Z,94.4188
2023-05-10T02:13:57.404Z,94.3069
2023-05-10T02:15:00.640Z,94.4301
2023-05-10T02:16:03.840Z,94.5458
2023-05-10T02:17:07.055Z,94.7963
2023-05-10T02:18:10.368Z,94.9757
2023-05-10T02:19:13.566Z,94.5722
2023-05-10T02:20:17.222Z,94.0975
2023-05-10T02:21:20.597Z,94.3568
2023-05-10T02:22:23.825Z,94.8659
2023-05-10T02:23:27.053Z,95.1954
2023-05-10T02:24:30.248Z,94.8626
2023-05-10T02:25:33.703Z,94.3193
2023-05-10T02:26:36.887Z,94.5003
2023-05-10T02:27:40.392Z,94.7489
2023-05-10T02:28:43.610Z,95.0136
2023-05-10T02:29:46.812Z,94.9637
2023-05-10T02:30:50.009Z,94.6907
2023-05-10T02:31:53.228Z,94.2177
2023-05-10T02:32:56.457Z,94.3253
2023-05-10T02:33:59.644Z,94.4124
2023-05-10T02:35:00.803Z,94.7617
2023-05-10T02:36:04.024Z,94.6464
2023-05-10T02:37:07.241Z,94.7220
2023-05-10T02:38:10.796Z,94.6872
2023-05-10T02:39:13.990Z,94.5750
2023-05-10T02:40:17.462Z,94.4489
2023-05-10T02:41:20.783Z,94.5517
2023-05-10T02:42:24.005Z,94.6925
2023-05-10T02:43:27.233Z,94.5948
2023-05-10T02:44:30.446Z,94.5331
2023-05-10T02:45:33.666Z,94.9011
2023-05-10T02:46:36.894Z,95.0042
2023-05-10T02:47:40.123Z,94.7749
2023-05-10T02:48:43.392Z,95.0130
2023-05-10T02:49:46.595Z,95.0668
2023-05-10T02:50:50.146Z,95.0062
2023-05-10T02:51:53.341Z,94.5248
2023-05-10T02:52:56.823Z,94.9419
2023-05-10T02:54:00.046Z,95.1107
2023-05-10T02:55:03.521Z,95.1729
2023-05-10T02:56:06.714Z,95.2613
2023-05-10T02:57:09.948Z,95.3492
2023-05-10T02:58:13.211Z,95.3883
2023-05-10T02:59:16.466Z,95.3876
2023-05-10T03:00:19.915Z,95.0939
2023-05-10T03:01:23.177Z,95.1479
2023-05-10T03:02:26.403Z,95.4116
2023-05-10T03:03:29.942Z,95.2523
2023-05-10T03:04:33.196Z,94.9843
2023-05-10T03:05:36.382Z,94.7877
2023-05-10T03:06:39.662Z,95.0996
2023-05-10T03:07:42.877Z,95.0406
2023-05-10T03:08:46.058Z,94.8813
2023-05-10T03:09:49.268Z,95.0850
2023-05-10T03:10:52.718Z,95.3404
2023-05-10T03:11:55.923Z,95.3685
2023-05-10T03:12:59.411Z,95.3197
2023-05-10T03:14:02.611Z,95.3837
2023-05-10T03:15:05.851Z,95.3800
2023-05-10T03:16:09.112Z,95.4264
2023-05-10T03:17:12.315Z,95.3885
2023-05-10T03:18:15.507Z,95.1898
2023-05-10T03:19:18.711Z,94.9726
2023-05-10T03:20:20.035Z,95.0468
2023-05-10T03:21:23.255Z,95.1344
2023-05-10T03:22:26.490Z,95.2475
2023-05-10T03:23:29.695Z,95.3137
2023-05-10T03:24:32.922Z,95.3619
2023-05-10T03:25:36.204Z,95.1692
2023-05-10T03:26:39.440Z,95.2388
2023-05-10T03:27:42.650Z,95.3347
2023-05-10T03:28:45.873Z,95.5060
2023-05-10T03:29:49.102Z,95.4694
2023-05-10T03:30:52.451Z,95.0058
2023-05-10T03:31:55.819Z,95.3649
2023-05-10T03:32:59.302Z,95.0064
2023-05-10T03:34:02.582Z,94.9328
2023-05-10T03:35:05.792Z,94.8809
2023-05-10T03:36:09.244Z,95.3122
2023-05-10T03:37:12.485Z,95.1384
2023-05-10T03:38:16.021Z,95.2079
2023-05-10T03:39:19.232Z,95.1570
2023-05-10T03:40:22.673Z,95.1989
2023-05-10T03:41:25.873Z,95.3891
2023-05-10T03:42:29.061Z,95.3461
2023-05-10T03:43:32.498Z,95.1760
2023-05-10T03:44:35.732Z,95.4205
2023-05-10T03:45:39.038Z,95.4584
2023-05-10T03:46:42.501Z,95.4639
2023-05-10T03:47:45.749Z,95.5629
2023-05-10T03:48:48.967Z,95.4494
2023-05-10T03:49:52.199Z,95.5332
2023-05-10T03:50:55.595Z,95.4099
2023-05-10T03:51:58.767Z,95.1764
2023-05-10T03:53:02.223Z,95.2696
2023-05-10T03:54:05.427Z,95.5724
2023-05-10T03:55:08.659Z,95.6338
2023-05-10T03:56:11.897Z,95.7145
2023-05-10T03:57:15.090Z,95.5946
2023-05-10T03:58:18.569Z,95.5206
2023-05-10T03:59:21.785Z,95.7445
2023-05-10T04:00:25.024Z,95.6335
2023-05-10T04:01:28.221Z,95.7765
2023-05-10T04:02:31.545Z,95.7279
2023-05-10T04:03:34.885Z,95.7664
2023-05-10T04:04:38.066Z,95.5112
2023-05-10T04:05:41.302Z,95.5017
2023-05-10T04:06:44.512Z,95.3187
2023-05-10T04:07:47.730Z,95.0507
2023-05-10T04:08:50.959Z,95.0739
2023-05-10T04:09:54.150Z,95.1713
2023-05-10T04:10:57.375Z,95.3646
2023-05-10T04:12:00.602Z,94.9300
2023-05-10T04:13:03.827Z,94.9643
2023-05-10T04:14:07.090Z,95.1430
2023-05-10T04:15:10.296Z,95.3303
2023-05-10T04:16:13.489Z,95.2509
2023-05-10T04:17:16.895Z,95.1411
2023-05-10T04:18:20.381Z,94.8817
2023-05-10T04:19:23.605Z,94.8723
2023-05-10T04:20:26.823Z,95.1094
2023-05-10T04:21:30.268Z,94.9905
2023-05-10T04:22:33.418Z,95.0983
2023-05-10T04:23:36.862Z,95.2381
2023-05-10T04:24:40.082Z,95.1887
2023-05-10T04:25:43.286Z,95.2222
2023-05-10T04:26:46.487Z,95.1596
2023-05-10T04:27:49.735Z,94.9441
2023-05-10T04:28:52.944Z,95.0572
2023-05-10T04:29:56.177Z,94.7127
2023-05-10T04:30:59.437Z,94.5760
2023-05-10T04:32:02.605Z,94.4342
2023-05-10T04:33:05.850Z,94.5526
2023-05-10T04:34:09.324Z,94.5796
2023-05-10T04:35:12.548Z,94.4418
2023-05-10T04:36:15.787Z,94.6181
2023-05-10T04:37:19.033Z,94.9004
2023-05-10T04:38:22.524Z,94.7001
2023-05-10T04:39:25.753Z,94.8574
2023-05-10T04:40:28.992Z,94.9337
2023-05-10T04:41:32.454Z,94.6116
2023-05-10T04:42:35.659Z,94.7447
2023-05-10T04:43:38.882Z,94.8402
2023-05-10T04:44:42.048Z,94.2780
2023-05-10T04:45:45.273Z,94.3298
2023-05-10T04:46:48.798Z,93.9434
2023-05-10T04:47:51.995Z,94.1446
2023-05-10T04:48:55.202Z,93.8991
2023-05-10T04:49:58.422Z,93.9592
2023-05-10T04:51:01.686Z,93.5383
2023-05-10T04:52:04.901Z,93.8374
2023-05-10T04:53:08.156Z,93.5040
2023-05-10T04:54:11.365Z,93.6173
2023-05-10T04:55:14.608Z,93.9240
2023-05-10T04:56:17.836Z,93.9780
2023-05-10T04:57:21.046Z,93.5256
2023-05-10T04:58:24.252Z,92.9461
2023-05-10T04:59:27.716Z,93.1155
2023-05-10T05:00:30.894Z,92.6860
2023-05-10T05:01:34.178Z,92.7409
2023-05-10T05:02:37.483Z,92.8260
2023-05-10T05:03:40.842Z,92.9555
2023-05-10T05:04:44.058Z,93.0676
2023-05-10T05:05:47.285Z,92.5383
2023-05-10T05:06:53.662Z,92.5805
2023-05-10T05:07:53.374Z,92.5866
2023-05-10T05:08:56.639Z,92.8002
2023-05-10T05:09:59.874Z,92.4480
2023-05-10T05:11:03.066Z,92.4701
2023-05-10T05:12:06.294Z,91.9853
2023-05-10T05:13:09.500Z,92.1543
2023-05-10T05:14:12.670Z,92.1649
2023-05-10T05:15:15.907Z,91.3210
2023-05-10T05:16:19.170Z,90.5449
2023-05-10T05:17:22.377Z,90.8178
2023-05-10T05:18:25.599Z,91.1541
2023-05-10T05:19:29.071Z,91.3667
2023-05-10T05:20:32.292Z,91.3921
2023-05-10T05:21:35.490Z,91.4376
2023-05-10T05:22:38.701Z,91.8530
2023-05-10T05:23:41.936Z,91.9554
2023-05-10T05:24:45.137Z,91.8901
2023-05-10T05:25:48.364Z,91.9945
2023-05-10T05:26:51.616Z,92.0334
2023-05-10T05:27:54.837Z,92.1660
2023-05-10T05:28:58.077Z,92.4208
2023-05-10T05:30:01.298Z,92.7282
2023-05-10T05:31:04.473Z,92.6833
2023-05-10T05:32:07.756Z,92.9317
2023-05-10T05:33:11.029Z,93.1007
2023-05-10T05:34:14.211Z,92.6846
2023-05-10T05:35:17.572Z,92.3914
2023-05-10T05:36:20.925Z,92.4512
2023-05-10T05:37:24.154Z,92.4492
2023-05-10T05:38:27.361Z,92.5103
2023-05-10T05:39:30.802Z,92.4537
2023-05-10T05:40:34.003Z,92.7154
2023-05-10T05:41:37.198Z,92.7100
2023-05-10T05:42:40.445Z,92.8187
2023-05-10T05:43:43.690Z,92.4384
2023-05-10T05:44:47.062Z,92.3619
2023-05-10T05:45:50.403Z,92.5026
2023-05-10T05:46:53.614Z,92.6143
2023-05-10T05:47:56.858Z,92.3112
2023-05-10T05:49:00.034Z,92.0920
2023-05-10T05:50:03.316Z,92.1595
2023-05-10T05:51:07.406Z,92.1303
2023-05-10T05:52:07.271Z,91.8490
2023-05-10T05:53:10.492Z,91.8257
2023-05-10T05:54:13.671Z,92.0535
2023-05-10T05:55:17.213Z,92.1636
2023-05-10T05:56:20.492Z,91.9583
2023-05-10T05:57:23.713Z,91.4528
2023-05-10T05:58:26.948Z,91.7053
2023-05-10T05:59:30.202Z,91.8964
2023-05-10T06:00:33.397Z,91.7843
2023-05-10T06:01:36.614Z,91.6083
2023-05-10T06:02:40.010Z,91.2875
2023-05-10T06:03:43.405Z,91.5599
2023-05-10T06:04:46.616Z,91.7062
2023-05-10T06:05:49.872Z,91.8683
2023-05-10T06:06:53.093Z,91.9396
2023-05-10T06:07:56.328Z,91.4529
2023-05-10T06:08:59.576Z,91.5172
2023-05-10T06:10:02.820Z,91.4510
2023-05-10T06:11:05.994Z,91.4223
2023-05-10T06:12:09.547Z,91.5597
2023-05-10T06:13:12.803Z,91.6038
2023-05-10T06:14:16.296Z,91.7388
2023-05-10T06:15:19.504Z,91.8654
2023-05-10T06:16:22.776Z,91.5759
2023-05-10T06:17:26.007Z,91.7802
2023-05-10T06:18:29.235Z,91.6697
2023-05-10T06:19:32.586Z,91.6727
2023-05-10T06:20:35.800Z,90.9181
2023-05-10T06:21:39.036Z,89.5825
2023-05-10T06:22:42.240Z,90.0610
2023-05-10T06:23:45.467Z,89.9236
2023-05-10T06:24:48.709Z,89.0729
2023-05-10T06:25:51.952Z,88.4250
2023-05-10T06:26:55.189Z,88.9628
2023-05-10T06:27:58.547Z,89.1724
2023-05-10T06:29:01.778Z,88.7525
2023-05-10T06:30:12.339Z,88.6963
2023-05-10T06:31:06.812Z,88.6475
2023-05-10T06:32:10.045Z,87.3037
2023-05-10T06:33:13.358Z,88.3338
2023-05-10T06:34:16.603Z,87.4264
2023-05-10T06:35:20.209Z,86.4388
2023-05-10T06:36:23.803Z,87.1233
2023-05-10T06:37:27.075Z,87.5446
2023-05-10T06:38:30.340Z,87.7896
2023-05-10T06:39:33.805Z,87.5542
2023-05-10T06:40:37.053Z,87.8983
2023-05-10T06:41:40.340Z,88.3660
2023-05-10T06:42:43.588Z,88.7197
2023-05-10T06:43:46.815Z,89.2623
2023-05-10T06:44:50.099Z,89.2783
2023-05-10T06:45:53.412Z,88.3611
2023-05-10T06:46:56.672Z,89.4846
2023-05-10T06:47:59.949Z,89.8606
2023-05-10T06:49:03.202Z,89.8641
2023-05-10T06:50:06.458Z,89.7298
2023-05-10T06:51:09.704Z,89.5002
2023-05-10T06:52:13.183Z,89.9271
2023-05-10T06:53:16.709Z,89.9599
2023-05-10T06:54:19.933Z,89.8148
2023-05-10T06:55:23.152Z,89.0659
2023-05-10T06:56:26.380Z,88.7592
2023-05-10T06:57:31.744Z,89.1203
2023-05-10T06:58:31.784Z,89.6680
2023-05-10T06:59:35.167Z,89.5420
2023-05-10T07:00:38.540Z,89.0876
2023-05-10T07:01:41.807Z,89.3553
2023-05-10T07:02:45.037Z,89.0780
2023-05-10T07:03:48.296Z,89.2479
2023-05-10T07:04:51.606Z,88.9254
2023-05-10T07:05:54.808Z,89.0233
2023-05-10T07:06:58.291Z,88.6395
2023-05-10T07:08:01.527Z,88.3138
2023-05-10T07:09:04.802Z,88.6131
2023-05-10T07:10:08.261Z,88.6533
2023-05-10T07:11:11.506Z,87.8859
2023-05-10T07:12:15.868Z,88.2575
2023-05-10T07:13:15.752Z,88.2336
2023-05-10T07:14:19.317Z,87.8993
2023-05-10T07:15:22.572Z,87.7341
2023-05-10T07:16:25.826Z,87.2792
2023-05-10T07:17:29.144Z,87.3732
2023-05-10T07:18:32.493Z,87.6039
2023-05-10T07:19:35.710Z,87.6829
2023-05-10T07:20:38.942Z,87.9035
2023-05-10T07:21:42.186Z,87.7579
2023-05-10T07:22:45.687Z,87.6880
2023-05-10T07:23:48.918Z,87.1950
2023-05-10T07:24:52.176Z,87.1208
2023-05-10T07:25:55.406Z,87.4078
2023-05-10T07:26:58.921Z,87.1941
2023-05-10T07:28:02.147Z,87.2866
2023-05-10T07:29:05.406Z,87.2322
2023-05-10T07:30:08.881Z,86.4179
2023-05-10T07:31:12.151Z,85.8658
2023-05-10T07:32:15.455Z,86.8517
2023-05-10T07:33:18.852Z,86.6822
2023-05-10T07:34:22.114Z,86.5143
2023-05-10T07:35:25.646Z,87.0444
2023-05-10T07:36:28.904Z,87.1831
2023-05-10T07:37:32.162Z,87.1152
2023-05-10T07:38:35.413Z,86.9771
2023-05-10T07:39:38.733Z,86.1226
2023-05-10T07:40:41.968Z,86.2207
2023-05-10T07:41:45.291Z,86.4384
2023-05-10T07:42:48.488Z,86.8309
2023-05-10T07:43:51.747Z,86.8653
2023-05-10T07:44:54.995Z,87.6846
2023-05-10T07:45:58.238Z,87.4512
2023-05-10T07:47:01.478Z,87.1946
2023-05-10T07:48:04.748Z,86.6895
2023-05-10T07:49:08.016Z,86.8018
2023-05-10T07:50:11.260Z,86.6694
2023-05-10T07:51:14.557Z,86.7946
2023-05-10T07:52:17.833Z,86.6370
2023-05-10T07:53:21.139Z,86.6448
2023-05-10T07:54:24.398Z,86.1175
2023-05-10T07:55:27.643Z,86.8064
2023-05-10T07:56:30.866Z,86.1374
2023-05-10T07:57:34.376Z,85.4210
2023-05-10T07:58:37.644Z,85.0582
2023-05-10T07:59:40.882Z,84.2062
2023-05-10T08:00:44.122Z,84.4711
2023-05-10T08:01:47.380Z,85.0256
2023-05-10T08:02:50.967Z,84.0009
2023-05-10T08:03:54.372Z,83.1134
2023-05-10T08:04:57.784Z,83.2497
2023-05-10T08:06:01.028Z,83.9866
2023-05-10T08:07:04.309Z,82.8149
2023-05-10T08:08:07.543Z,82.8314
2023-05-10T08:09:10.791Z,83.1320
2023-05-10T08:10:14.299Z,83.0244
2023-05-10T08:11:17.532Z,82.6942
2023-05-10T08:12:21.066Z,83.1683
2023-05-10T08:13:24.289Z,82.6045
2023-05-10T08:14:27.557Z,82.6377
2023-05-10T08:15:30.819Z,82.6470
2023-05-10T08:16:34.141Z,82.0166
2023-05-10T08:17:37.399Z,81.2294
2023-05-10T08:18:40.726Z,80.9464
2023-05-10T08:19:43.938Z,81.9104
2023-05-10T08:20:47.162Z,81.9355
2023-05-10T08:21:50.471Z,82.1544
2023-05-10T08:22:53.720Z,81.4355
2023-05-10T08:23:56.972Z,81.0077
2023-05-10T08:25:00.195Z,81.4225
2023-05-10T08:26:03.458Z,81.5035
2023-05-10T08:27:06.735Z,81.8188
2023-05-10T08:28:11.335Z,82.0144
2023-05-10T08:29:11.472Z,80.7738
2023-05-10T08:30:14.731Z,79.1141
2023-05-10T08:31:18.008Z,79.2596
2023-05-10T08:32:21.222Z,78.7664
2023-05-10T08:33:24.471Z,78.9899
2023-05-10T08:34:27.878Z,80.5463
2023-05-10T08:35:31.126Z,80.1929
2023-05-10T08:36:34.395Z,78.7035
2023-05-10T08:37:37.635Z,77.8343
2023-05-10T08:38:40.845Z,79.2513
2023-05-10T08:39:44.372Z,78.2887
2023-05-10T08:40:47.591Z,78.6437
2023-05-10T08:41:50.829Z,77.2097
2023-05-10T08:42:54.115Z,77.7923
2023-05-10T08:43:57.394Z,77.8473
2023-05-10T08:45:00.955Z,77.7085
2023-05-10T08:46:04.284Z,77.1108
2023-05-10T08:47:07.730Z,76.4964
2023-05-10T08:48:11.157Z,76.9090
2023-05-10T08:49:14.371Z,75.6223
2023-05-10T08:50:17.639Z,76.3376
2023-05-10T08:51:20.887Z,77.0545
2023-05-10T08:52:24.154Z,77.0112
2023-05-10T08:53:27.391Z,76.8188
2023-05-10T08:54:30.657Z,78.3327
2023-05-10T08:55:34.139Z,76.4907
2023-05-10T08:56:37.366Z,76.7636
2023-05-10T08:57:40.623Z,76.9580
2023-05-10T08:58:43.899Z,77.9900
2023-05-10T08:59:47.103Z,78.2056
2023-05-10T09:00:50.358Z,77.2008
2023-05-10T09:01:53.569Z,76.5708
2023-05-10T09:02:56.846Z,75.8923
2023-05-10T09:04:00.200Z,76.8167
2023-05-10T09:05:03.771Z,75.9678
2023-05-10T09:06:07.065Z,77.7639
2023-05-10T09:07:10.293Z,77.1647
2023-05-10T09:08:13.568Z,77.7788
2023-05-10T09:09:16.851Z,77.2326
2023-05-10T09:10:20.095Z,77.4239
2023-05-10T09:11:23.348Z,77.8378
2023-05-10T09:12:26.568Z,78.2677
2023-05-10T09:13:29.832Z,77.2517
2023-05-10T09:14:33.073Z,77.5714
2023-05-10T09:15:36.570Z,77.4381
2023-05-10T09:16:39.973Z,76.6269
2023-05-10T09:17:43.343Z,76.4810
2023-05-10T09:18:46.655Z,76.5675
2023-05-10T09:19:49.900Z,76.6684
2023-05-10T09:20:53.180Z,76.6888
2023-05-10T09:21:56.393Z,77.2024
2023-05-10T09:22:59.874Z,77.3539
2023-05-10T09:24:03.148Z,77.6393
2023-05-10T09:25:06.391Z,77.3421
2023-05-10T09:26:09.667Z,76.8819
2023-05-10T09:27:12.922Z,76.8195
2023-05-10T09:28:16.492Z,76.7375
2023-05-10T09:29:19.745Z,77.2036
2023-05-10T09:30:23.019Z,76.6261
2023-05-10T09:31:26.332Z,75.8040
2023-05-10T09:32:29.562Z,74.5255
2023-05-10T09:33:32.801Z,74.8178
2023-05-10T09:34:36.048Z,74.6422
2023-05-10T09:35:39.528Z,74.7597
2023-05-10T09:36:42.796Z,75.2830
2023-05-10T09:37:46.632Z,75.4692
2023-05-10T09:38:46.202Z,75.8796
2023-05-10T09:39:49.455Z,75.3274
2023-05-10T09:40:52.728Z,76.0528
2023-05-10T09:41:55.960Z,76.7262
2023-05-10T09:42:59.429Z,76.9038
2023-05-10T09:44:02.682Z,77.2030
2023-05-10T09:45:05.952Z,75.2618
2023-05-10T09:46:09.359Z,76.6440
2023-05-10T09:47:12.612Z,76.4451
2023-05-10T09:48:15.849Z,76.7421
2023-05-10T09:49:19.105Z,75.9196
2023-05-10T09:50:22.387Z,75.7589
2023-05-10T09:51:25.610Z,75.9691
2023-05-10T09:52:28.885Z,76.2822
2023-05-10T09:53:32.275Z,75.7612
2023-05-10T09:54:35.491Z,75.3429
2023-05-10T09:55:38.742Z,75.1429
2023-05-10T09:56:42.015Z,74.3648
2023-05-10T09:57:45.245Z,73.7473
2023-05-10T09:58:48.509Z,73.5948
2023-05-10T09:59:51.732Z,73.5018
2023-05-10T10:00:55.035Z,73.2029
2023-05-10T10:01:58.360Z,72.9895
2023-05-10T10:03:01.585Z,73.9764
2023-05-10T10:04:04.836Z,73.0133
2023-05-10T10:05:08.240Z,74.1431
2023-05-10T10:06:22.700Z,74.7354
2023-05-10T10:07:13.302Z,74.5195
2023-05-10T10:08:16.814Z,74.2071
2023-05-10T10:09:20.058Z,73.3444
2023-05-10T10:10:23.301Z,71.6906
2023-05-10T10:11:26.564Z,71.1108
2023-05-10T10:12:29.805Z,69.9596
2023-05-10T10:13:33.286Z,70.4639
2023-05-10T10:14:36.551Z,71.6095
2023-05-10T10:15:39.778Z,71.2017
2023-05-10T10:16:55.514Z,70.8204
2023-05-10T10:17:44.878Z,69.8363
2023-05-10T10:18:48.167Z,68.3537
2023-05-10T10:19:51.442Z,69.2173
2023-05-10T10:20:52.793Z,69.7187
2023-05-10T10:21:56.063Z,69.3457
2023-05-10T10:22:59.273Z,69.9091
2023-05-10T10:24:02.571Z,69.0215
2023-05-10T10:25:05.839Z,67.3963
2023-05-10T10:26:09.384Z,67.4286
2023-05-10T10:27:12.601Z,67.8058
2023-05-10T10:28:15.869Z,67.3193
2023-05-10T10:29:19.121Z,67.1888
2023-05-10T10:30:22.714Z,66.2684
2023-05-10T10:31:25.988Z,66.1243
2023-05-10T10:32:29.277Z,65.6480
2023-05-10T10:33:32.629Z,66.2032
2023-05-10T10:34:35.888Z,66.6159
2023-05-10T10:35:39.142Z,66.8509
2023-05-10T10:36:42.410Z,65.9373
2023-05-10T10:37:45.642Z,65.4342
2023-05-10T10:38:48.876Z,64.1980
2023-05-10T10:39:52.125Z,63.7801
2023-05-10T10:40:55.383Z,65.9618
2023-05-10T10:41:58.620Z,67.0823
2023-05-10T10:43:02.113Z,64.5686
2023-05-10T10:44:05.348Z,65.8690
2023-05-10T10:45:08.600Z,64.2136
2023-05-10T10:46:11.899Z,63.7330
2023-05-10T10:47:15.168Z,66.0841
2023-05-10T10:48:18.454Z,64.1631
2023-05-10T10:49:21.700Z,62.7592
2023-05-10T10:50:24.952Z,66.9832
2023-05-10T10:51:28.206Z,65.7101
2023-05-10T10:52:31.477Z,64.5425
2023-05-10T10:53:35.067Z,63.9142
2023-05-10T10:54:38.328Z,64.8058
2023-05-10T10:55:41.573Z,62.9324
2023-05-10T10:56:44.836Z,63.5108
2023-05-10T10:57:48.108Z,65.5121
2023-05-10T10:58:51.573Z,66.5101
2023-05-10T10:59:54.803Z,64.5276
2023-05-10T11:00:58.067Z,65.2485
2023-05-10T11:02:01.272Z,66.4560
2023-05-10T11:03:04.539Z,68.2958
2023-05-10T11:04:08.535Z,67.4887
2023-05-10T11:05:08.093Z,67.7918
2023-05-10T11:06:11.344Z,67.6974
2023-05-10T11:07:14.598Z,67.2641
2023-05-10T11:08:15.654Z,68.8767
2023-05-10T11:09:18.919Z,67.8675
2023-05-10T11:10:22.153Z,67.8223
2023-05-10T11:11:25.394Z,67.4865
2023-05-10T11:12:28.673Z,68.1546
2023-05-10T11:13:31.970Z,67.9667
2023-05-10T11:14:35.242Z,65.6878
2023-05-10T11:15:38.491Z,65.6513
2023-05-10T11:16:41.764Z,66.6236
2023-05-10T11:17:45.017Z,66.5208
2023-05-10T11:18:50.271Z,67.2159
2023-05-10T11:19:49.849Z,66.9055
2023-05-10T11:20:53.335Z,66.2329
2023-05-10T11:21:56.602Z,67.0650
2023-05-10T11:22:59.874Z,67.0816
2023-05-10T11:24:03.119Z,67.0466
2023-05-10T11:25:06.366Z,66.7753
2023-05-10T11:26:09.610Z,66.3986
2023-05-10T11:27:12.876Z,65.7633
2023-05-10T11:28:16.158Z,64.8607
2023-05-10T11:29:19.380Z,65.7987
2023-05-10T11:30:22.648Z,66.7941
2023-05-10T11:31:25.976Z,65.2491
2023-05-10T11:32:29.226Z,63.9765
2023-05-10T11:33:32.530Z,63.1030
2023-05-10T11:34:35.823Z,62.7891
2023-05-10T11:35:40.997Z,62.8069
2023-05-10T11:36:41.957Z,62.7633
2023-05-10T11:37:45.181Z,61.9015
2023-05-10T11:38:48.441Z,62.9048
2023-05-10T11:39:51.709Z,63.1745
2023-05-10T11:40:54.970Z,65.9123
2023-05-10T11:41:58.262Z,67.9890
2023-05-10T11:43:01.513Z,67.9907
2023-05-10T11:44:04.735Z,66.3471
2023-05-10T11:45:08.006Z,63.5326
2023-05-10T11:46:11.534Z,64.4937
2023-05-10T11:47:14.789Z,64.5055
2023-05-10T11:48:18.049Z,63.0442
2023-05-10T11:49:21.284Z,61.9527
2023-05-10T11:50:24.530Z,60.7876
2023-05-10T11:51:28.031Z,60.2028
2023-05-10T11:52:31.235Z,61.2453
2023-05-10T11:53:34.493Z,62.3713
2023-05-10T11:54:37.754Z,62.8154
2023-05-10T11:55:41.049Z,62.9106
2023-05-10T11:56:44.302Z,61.5244
2023-05-10T11:57:47.525Z,62.6308
2023-05-10T11:58:50.803Z,62.1373
2023-05-10T11:59:54.065Z,61.4063
2023-05-10T12:00:57.337Z,60.5805
2023-05-10T12:02:00.622Z,59.9105
2023-05-10T12:03:04.063Z,60.4278
2023-05-10T12:04:07.532Z,60.1835
2023-05-10T12:05:11.010Z,60.0570
2023-05-10T12:06:14.292Z,59.0966
2023-05-10T12:07:17.541Z,58.1606
2023-05-10T12:08:20.823Z,58.1953
2023-05-10T12:10:24.041Z,56.5298
2023-05-10T12:11:25.328Z,57.8534
2023-05-10T12:12:28.598Z,57.1075
2023-05-10T12:13:31.870Z,58.7638
2023-05-10T12:14:35.124Z,60.9481
2023-05-10T12:15:38.395Z,61.3869
2023-05-10T12:16:42.067Z,61.2298
2023-05-10T12:17:45.376Z,61.7734
2023-05-10T12:18:48.682Z,61.4432
2023-05-10T12:19:51.918Z,59.8466
2023-05-10T12:20:55.160Z,60.3570
2023-05-10T12:21:58.403Z,59.9085
2023-05-10T12:23:01.640Z,60.8726
2023-05-10T12:24:05.127Z,60.7392
2023-05-10T12:25:08.473Z,61.2986
2023-05-10T12:26:11.746Z,61.3494
2023-05-10T12:27:14.973Z,61.9027
2023-05-10T12:28:18.226Z,67.5042
2023-05-10T12:29:21.457Z,70.2261
2023-05-10T12:30:24.729Z,70.9690
2023-05-10T12:31:28.063Z,71.1927
2023-05-10T12:32:31.404Z,69.8980
2023-05-10T12:33:34.847Z,69.7841
2023-05-10T12:34:38.143Z,71.2808
2023-05-10T12:35:43.090Z,71.7908
2023-05-10T12:36:42.681Z,72.8515
2023-05-10T12:37:45.895Z,73.1560
2023-05-10T12:38:49.202Z,72.1379
2023-05-10T12:39:52.435Z,72.8363
2023-05-10T12:40:55.729Z,71.6212
2023-05-10T12:41:58.928Z,73.2654
2023-05-10T12:43:02.215Z,74.4549
2023-05-10T12:44:03.405Z,73.8724
2023-05-10T12:45:06.657Z,74.7233
2023-05-10T12:46:09.996Z,74.7352